Time;durP1;ratioP1;P1;durP2;ratioP2;P2;SDS_P1;SDS_P2;PMS_P1;PMS_P2;Temp;Humidity;BMP_temperature;BMP_pressure;BME280_temperature;BME280_humidity;BME280_pressure;Samples;Min_cycle;Max_cycle;Signal;HPM_P1;HPM_P2
2023/12/10 00:01:05;;;;;;;16.20;5.03;;;11.40;99.90;;;;;;5112357;28;20604;-75
2023/12/10 00:03:30;;;;;;;13.37;5.20;;;11.40;99.90;;;;;;5112053;28;20184;-75
2023/12/10 00:05:56;;;;;;;12.53;5.63;;;11.40;99.90;;;;;;5106846;28;20474;-75
2023/12/10 00:08:22;;;;;;;13.50;4.63;;;11.50;99.90;;;;;;5113780;28;20177;-72
2023/12/10 00:10:48;;;;;;;16.03;5.23;;;11.50;99.90;;;;;;5115161;28;20440;-67
2023/12/10 00:13:14;;;;;;;14.90;4.60;;;11.40;99.90;;;;;;5114230;28;20427;-76
2023/12/10 00:15:40;;;;;;;15.23;5.37;;;11.50;99.90;;;;;;5113989;28;20456;-76
2023/12/10 00:18:06;;;;;;;14.13;5.13;;;11.50;99.90;;;;;;5102402;28;20320;-75
2023/12/10 00:20:32;;;;;;;12.83;5.10;;;11.50;99.90;;;;;;5103645;28;20527;-75
2023/12/10 00:22:57;;;;;;;10.90;5.13;;;11.60;99.90;;;;;;5114664;28;20175;-75
2023/12/10 00:25:25;;;;;;;11.57;4.63;;;11.60;99.90;;;;;;5096189;28;20625;-75
2023/12/10 00:27:51;;;;;;;10.10;4.90;;;11.60;99.90;;;;;;5100750;28;20700;-77
2023/12/10 00:30:17;;;;;;;15.07;5.47;;;11.60;99.90;;;;;;5113372;28;20440;-74
2023/12/10 00:32:43;;;;;;;17.13;4.70;;;11.70;99.90;;;;;;5056650;28;20914;-76
2023/12/10 00:35:09;;;;;;;13.00;4.70;;;11.60;99.90;;;;;;5102123;28;20421;-76
2023/12/10 00:37:35;;;;;;;17.50;5.30;;;11.60;99.90;;;;;;5112707;28;20462;-77
2023/12/10 00:40:03;;;;;;;15.80;4.70;;;11.60;99.90;;;;;;5080252;28;20431;-76
2023/12/10 00:42:29;;;;;;;12.73;4.13;;;11.60;99.90;;;;;;5119005;27;20191;-76
2023/12/10 00:44:55;;;;;;;7.60;4.20;;;11.50;99.90;;;;;;5100428;28;20435;-77
2023/12/10 00:47:20;;;;;;;13.97;5.30;;;11.50;99.90;;;;;;5094764;28;20183;-76
2023/12/10 00:49:46;;;;;;;13.97;5.07;;;11.50;99.90;;;;;;5092618;28;20177;-77
2023/12/10 00:52:12;;;;;;;12.07;4.70;;;11.50;99.90;;;;;;5093670;28;20313;-75
2023/12/10 00:54:38;;;;;;;8.80;4.17;;;11.50;99.90;;;;;;5113086;28;20183;-77
2023/12/10 00:57:04;;;;;;;15.30;5.00;;;11.50;99.90;;;;;;5112669;28;20175;-76
2023/12/10 00:59:30;;;;;;;15.30;4.90;;;11.50;99.90;;;;;;5124702;27;20802;-75
2023/12/10 01:01:57;;;;;;;15.27;5.30;;;11.50;99.90;;;;;;5104234;28;20431;-76
2023/12/10 01:04:23;;;;;;;13.27;5.27;;;11.60;99.90;;;;;;5113291;28;20207;-74
2023/12/10 01:06:50;;;;;;;18.37;4.60;;;11.50;99.90;;;;;;5114059;28;20917;-76
2023/12/10 01:09:15;;;;;;;19.60;5.80;;;11.60;99.90;;;;;;5110730;28;20468;-78
2023/12/10 01:11:42;;;;;;;16.33;6.27;;;11.50;99.90;;;;;;5112161;28;20442;-70
2023/12/10 01:14:07;;;;;;;13.50;4.30;;;11.40;99.90;;;;;;5092771;28;20265;-78
2023/12/10 01:16:33;;;;;;;9.03;5.00;;;11.30;99.90;;;;;;5101584;28;20443;-75
2023/12/10 01:19:00;;;;;;;14.77;4.93;;;11.30;99.90;;;;;;5113487;28;20237;-77
2023/12/10 01:21:26;;;;;;;15.37;5.20;;;11.30;99.90;;;;;;5105540;28;20234;-77
2023/12/10 01:23:54;;;;;;;12.63;4.90;;;11.30;99.90;;;;;;5102046;28;20435;-66
2023/12/10 01:26:21;;;;;;;10.90;4.23;;;11.30;99.90;;;;;;5086613;28;20954;-77
2023/12/10 01:28:47;;;;;;;10.30;4.63;;;11.40;99.90;;;;;;5075824;28;20427;-76
2023/12/10 01:31:12;;;;;;;16.47;5.13;;;11.40;99.90;;;;;;5090905;28;20436;-76
2023/12/10 01:33:39;;;;;;;16.67;4.50;;;11.40;99.90;;;;;;5095100;28;20453;-76
2023/12/10 01:36:05;;;;;;;18.00;5.43;;;11.40;99.90;;;;;;5100827;28;20191;-76
2023/12/10 01:38:31;;;;;;;17.80;6.83;;;11.40;99.90;;;;;;5099606;28;20486;-75
2023/12/10 01:40:57;;;;;;;21.50;4.47;;;11.40;99.90;;;;;;5099498;28;20430;-75
2023/12/10 01:43:22;;;;;;;14.30;5.00;;;11.40;99.90;;;;;;5102509;28;20214;-76
2023/12/10 01:45:50;;;;;;;10.57;4.47;;;11.40;99.90;;;;;;5109652;28;20318;-76
2023/12/10 01:48:20;;;;;;;20.53;5.43;;;11.40;99.90;;;;;;5088546;28;20179;-77
2023/12/10 01:50:47;;;;;;;20.67;5.20;;;11.30;99.90;;;;;;5096400;28;20474;-78
2023/12/10 01:53:14;;;;;;;9.30;4.33;;;11.30;99.90;;;;;;5091096;28;20414;-76
2023/12/10 01:55:41;;;;;;;10.93;4.87;;;11.30;99.90;;;;;;5100771;28;20423;-77
2023/12/10 01:58:08;;;;;;;14.63;4.57;;;11.30;99.90;;;;;;5087259;28;20449;-78
2023/12/10 02:00:34;;;;;;;17.63;5.10;;;11.30;99.90;;;;;;5088423;28;20451;-78
2023/12/10 02:03:02;;;;;;;11.67;4.37;;;11.30;99.90;;;;;;5092898;28;20605;-77
2023/12/10 02:05:28;;;;;;;13.27;5.00;;;11.30;99.90;;;;;;5091343;28;20408;-77
2023/12/10 02:07:54;;;;;;;14.90;3.90;;;11.30;99.90;;;;;;5096228;28;20515;-68
2023/12/10 02:10:20;;;;;;;17.97;4.27;;;11.30;99.90;;;;;;5089218;28;20427;-77
2023/12/10 02:12:47;;;;;;;8.87;3.70;;;11.30;99.90;;;;;;5099503;28;20179;-78
2023/12/10 02:15:17;;;;;;;14.80;4.40;;;11.30;99.90;;;;;;5094662;28;20274;-76
2023/12/10 02:17:44;;;;;;;11.53;6.03;;;11.40;99.90;;;;;;5091363;28;20462;-77
2023/12/10 02:20:12;;;;;;;15.60;4.80;;;11.30;99.90;;;;;;5085181;28;20947;-76
2023/12/10 02:22:48;;;;;;;17.40;4.97;;;11.40;99.90;;;;;;5091600;28;20436;-77
2023/12/10 02:25:19;;;;;;;16.40;4.97;;;11.30;99.90;;;;;;5075096;28;20419;-76
2023/12/10 02:27:45;;;;;;;13.57;4.70;;;11.30;99.90;;;;;;5093511;28;20434;-77
2023/12/10 02:30:11;;;;;;;14.50;5.10;;;11.30;99.90;;;;;;5103966;28;20781;-77
2023/12/10 02:32:37;;;;;;;15.73;4.97;;;11.30;99.90;;;;;;5095892;28;20263;-76
2023/12/10 02:35:03;;;;;;;17.53;6.13;;;11.20;99.90;;;;;;5100484;28;20517;-78
2023/12/10 02:37:29;;;;;;;17.03;4.63;;;11.30;99.90;;;;;;5091728;28;20208;-78
2023/12/10 02:39:55;;;;;;;13.37;4.27;;;11.40;99.90;;;;;;5102691;28;20474;-66
2023/12/10 02:42:21;;;;;;;11.80;4.10;;;11.30;99.90;;;;;;5109932;28;20436;-75
2023/12/10 02:44:46;;;;;;;14.27;5.10;;;11.40;99.90;;;;;;5087296;28;20655;-76
2023/12/10 02:47:12;;;;;;;16.27;5.13;;;11.30;99.90;;;;;;5093803;28;20190;-78
2023/12/10 02:49:38;;;;;;;10.97;4.17;;;11.30;99.90;;;;;;5112926;28;20179;-77
2023/12/10 02:52:04;;;;;;;11.20;4.30;;;11.20;99.90;;;;;;5076279;28;20195;-77
2023/12/10 02:54:30;;;;;;;23.63;5.30;;;11.30;99.90;;;;;;5073613;28;20433;-78
2023/12/10 02:56:56;;;;;;;14.40;4.73;;;11.20;99.90;;;;;;5079959;28;20518;-66
2023/12/10 02:59:21;;;;;;;10.60;4.60;;;11.20;99.90;;;;;;5091905;28;20306;-77
2023/12/10 03:01:47;;;;;;;13.83;4.20;;;11.20;99.90;;;;;;5089266;28;20200;-77
2023/12/10 03:04:13;;;;;;;17.13;4.10;;;11.10;99.90;;;;;;5078844;28;20172;-77
2023/12/10 03:06:39;;;;;;;15.60;5.50;;;11.10;99.90;;;;;;5092869;28;20777;-75
2023/12/10 03:09:04;;;;;;;12.50;4.83;;;11.10;99.90;;;;;;5086798;28;20182;-77
2023/12/10 03:11:30;;;;;;;15.90;4.83;;;11.10;99.90;;;;;;5087598;28;20179;-78
2023/12/10 03:13:56;;;;;;;10.37;3.77;;;11.00;99.90;;;;;;5095898;28;20226;-76
2023/12/10 03:16:22;;;;;;;14.30;6.00;;;11.00;99.90;;;;;;5106505;28;20545;-77
2023/12/10 03:18:47;;;;;;;20.77;5.20;;;11.00;99.90;;;;;;5111811;28;20206;-76
2023/12/10 03:21:13;;;;;;;9.33;4.20;;;10.90;99.90;;;;;;5090738;28;20190;-77
2023/12/10 03:23:39;;;;;;;15.00;5.10;;;10.90;99.90;;;;;;5106226;28;20180;-69
2023/12/10 03:26:05;;;;;;;13.87;4.40;;;11.00;99.90;;;;;;5094087;28;20548;-76
2023/12/10 03:28:30;;;;;;;15.00;3.70;;;10.90;99.90;;;;;;5101972;28;20669;-76
2023/12/10 03:30:56;;;;;;;14.00;4.70;;;10.90;99.90;;;;;;5094892;28;20415;-77
2023/12/10 03:33:22;;;;;;;13.70;4.53;;;10.90;99.90;;;;;;5108242;28;20273;-76
2023/12/10 03:35:48;;;;;;;12.97;4.27;;;10.80;99.90;;;;;;5100319;28;20202;-76
2023/12/10 03:38:13;;;;;;;12.47;4.40;;;10.70;99.90;;;;;;5098995;28;20565;-76
2023/12/10 03:40:39;;;;;;;8.40;3.83;;;10.80;99.90;;;;;;5116368;28;20184;-76
2023/12/10 03:43:05;;;;;;;12.57;4.00;;;10.80;99.90;;;;;;5100073;28;20171;-75
2023/12/10 03:45:31;;;;;;;15.83;4.63;;;10.80;99.90;;;;;;5107013;28;20176;-76
2023/12/10 03:47:57;;;;;;;15.63;5.00;;;10.80;99.90;;;;;;5083992;28;20185;-74
2023/12/10 03:50:23;;;;;;;13.70;4.27;;;10.80;99.90;;;;;;5093672;28;20916;-74
2023/12/10 03:52:49;;;;;;;7.73;3.40;;;10.80;99.90;;;;;;5093858;28;20657;-77
2023/12/10 03:55:14;;;;;;;11.03;4.40;;;10.70;99.90;;;;;;5089167;28;20451;-77
2023/12/10 03:57:40;;;;;;;7.70;3.30;;;10.70;99.90;;;;;;5096353;28;20204;-75
2023/12/10 04:00:07;;;;;;;7.80;3.80;;;10.80;99.90;;;;;;5099001;28;21008;-75
2023/12/10 04:02:32;;;;;;;11.40;3.80;;;10.70;99.90;;;;;;5102738;28;20293;-76
2023/12/10 04:04:58;;;;;;;11.17;3.63;;;10.70;99.90;;;;;;5102584;28;20528;-76
2023/12/10 04:07:25;;;;;;;7.20;4.10;;;10.70;99.90;;;;;;5102022;28;20426;-76
2023/12/10 04:09:51;;;;;;;9.60;3.87;;;10.60;99.90;;;;;;5100636;28;20185;-77
2023/12/10 04:12:17;;;;;;;12.33;3.10;;;10.50;99.90;;;;;;5098914;28;20513;-76
2023/12/10 04:14:47;;;;;;;10.27;3.40;;;10.50;99.90;;;;;;5099562;28;20479;-77
2023/12/10 04:17:12;;;;;;;7.80;3.50;;;10.60;99.90;;;;;;5106699;28;20191;-75
2023/12/10 04:19:38;;;;;;;8.20;3.50;;;10.60;99.90;;;;;;5091991;28;20464;-76
2023/12/10 04:22:04;;;;;;;5.20;3.43;;;10.50;99.90;;;;;;5084735;28;20226;-66
2023/12/10 04:24:30;;;;;;;8.37;3.90;;;10.50;99.90;;;;;;5115423;28;20177;-77
2023/12/10 04:26:55;;;;;;;10.70;4.00;;;10.50;99.90;;;;;;5093732;28;20186;-75
2023/12/10 04:29:21;;;;;;;7.20;3.50;;;10.50;99.90;;;;;;5092929;28;20176;-77
2023/12/10 04:31:47;;;;;;;13.40;3.73;;;10.40;99.90;;;;;;5093661;28;20199;-79
2023/12/10 04:34:13;;;;;;;10.07;3.43;;;10.30;99.90;;;;;;5094089;28;20202;-77
2023/12/10 04:36:38;;;;;;;11.03;3.57;;;10.30;99.90;;;;;;5103207;28;20191;-76
2023/12/10 04:39:04;;;;;;;8.80;3.80;;;10.30;99.90;;;;;;5091638;28;20221;-64
2023/12/10 04:41:30;;;;;;;7.47;4.03;;;10.20;99.90;;;;;;5102442;28;20183;-75
2023/12/10 04:43:55;;;;;;;9.90;3.80;;;10.20;99.90;;;;;;5092657;28;20182;-75
2023/12/10 04:46:21;;;;;;;10.80;4.13;;;10.30;99.90;;;;;;5073534;28;20213;-75
2023/12/10 04:48:47;;;;;;;13.50;3.97;;;10.30;99.90;;;;;;5084504;28;20193;-74
2023/12/10 04:51:13;;;;;;;12.07;3.60;;;10.30;99.90;;;;;;5099612;27;20639;-76
2023/12/10 04:53:38;;;;;;;11.80;4.10;;;10.30;99.90;;;;;;5094133;28;20170;-76
2023/12/10 04:56:05;;;;;;;9.47;3.97;;;10.30;99.90;;;;;;5108034;28;20189;-66
2023/12/10 04:58:31;;;;;;;9.97;4.13;;;10.30;99.90;;;;;;5096534;28;20272;-76
2023/12/10 05:00:56;;;;;;;8.60;3.70;;;10.30;99.90;;;;;;5113222;28;20891;-76
2023/12/10 05:03:22;;;;;;;6.50;4.00;;;10.40;99.90;;;;;;5092488;28;20222;-76
2023/12/10 05:05:48;;;;;;;6.47;3.83;;;10.30;99.90;;;;;;5086928;28;20182;-69
2023/12/10 05:08:14;;;;;;;10.20;4.53;;;10.30;99.90;;;;;;5113529;28;20280;-76
2023/12/10 05:10:39;;;;;;;9.80;4.00;;;10.30;99.90;;;;;;5106844;28;20443;-76
2023/12/10 05:13:06;;;;;;;12.80;4.13;;;10.30;99.90;;;;;;5096874;28;20175;-66
2023/12/10 05:15:32;;;;;;;9.17;4.60;;;10.30;99.90;;;;;;5074060;28;20276;-73
2023/12/10 05:18:01;;;;;;;9.50;3.93;;;10.30;99.90;;;;;;5113079;28;20452;-75
2023/12/10 05:20:26;;;;;;;11.10;4.63;;;10.30;99.90;;;;;;5100567;28;20440;-77
2023/12/10 05:22:52;;;;;;;16.03;4.83;;;10.30;99.90;;;;;;5092068;28;20420;-76
2023/12/10 05:25:18;;;;;;;13.80;4.33;;;10.40;99.90;;;;;;5091390;28;20175;-75
2023/12/10 05:27:44;;;;;;;11.20;4.33;;;10.40;99.90;;;;;;5090407;28;20193;-76
2023/12/10 05:30:11;;;;;;;6.33;3.73;;;10.30;99.90;;;;;;5093197;28;20210;-74
2023/12/10 05:32:37;;;;;;;12.37;4.50;;;10.30;99.90;;;;;;5073694;28;20262;-76
2023/12/10 05:35:03;;;;;;;11.50;4.40;;;10.30;99.90;;;;;;5085816;28;20839;-76
2023/12/10 05:37:28;;;;;;;15.17;3.53;;;10.30;99.90;;;;;;5087488;28;20461;-76
2023/12/10 05:39:54;;;;;;;11.03;4.70;;;10.30;99.90;;;;;;5074262;28;20409;-76
2023/12/10 05:42:20;;;;;;;13.27;4.27;;;10.40;99.90;;;;;;5074154;28;20188;-76
2023/12/10 05:44:48;;;;;;;8.70;3.40;;;10.40;99.90;;;;;;5115677;27;20452;-79
2023/12/10 05:47:14;;;;;;;12.23;4.17;;;10.40;99.90;;;;;;5092980;28;20193;-78
2023/12/10 05:49:39;;;;;;;17.70;5.00;;;10.40;99.90;;;;;;5092198;28;20423;-77
2023/12/10 05:52:06;;;;;;;12.70;4.10;;;10.40;99.90;;;;;;5092193;28;20191;-77
2023/12/10 05:54:31;;;;;;;8.60;4.10;;;10.40;99.90;;;;;;5091411;28;20172;-76
2023/12/10 05:56:57;;;;;;;9.90;4.90;;;10.50;99.90;;;;;;5093492;28;20413;-77
2023/12/10 05:59:23;;;;;;;8.30;3.60;;;10.40;99.90;;;;;;5096282;28;20226;-75
2023/12/10 06:01:49;;;;;;;10.00;4.10;;;10.40;99.90;;;;;;5106046;28;20193;-76
2023/12/10 06:04:15;;;;;;;11.43;3.70;;;10.40;99.90;;;;;;5099196;28;20173;-76
2023/12/10 06:06:41;;;;;;;10.03;3.80;;;10.40;99.90;;;;;;5087409;28;20176;-77
2023/12/10 06:09:09;;;;;;;5.87;3.70;;;10.60;99.90;;;;;;5091852;28;20525;-67
2023/12/10 06:11:35;;;;;;;9.40;4.37;;;10.50;99.90;;;;;;5092279;28;20164;-66
2023/12/10 06:14:00;;;;;;;8.53;4.20;;;10.40;99.90;;;;;;5112289;28;20778;-77
2023/12/10 06:16:26;;;;;;;9.80;3.60;;;10.40;99.90;;;;;;5096435;28;20485;-76
2023/12/10 06:18:52;;;;;;;11.67;4.40;;;10.40;99.90;;;;;;5097518;28;20271;-77
2023/12/10 06:21:18;;;;;;;12.47;4.60;;;10.40;99.90;;;;;;5112439;28;20560;-74
2023/12/10 06:23:43;;;;;;;15.37;4.50;;;10.50;99.90;;;;;;5094751;28;20190;-75
2023/12/10 06:26:09;;;;;;;11.83;4.53;;;10.50;99.90;;;;;;5097426;28;20191;-65
2023/12/10 06:28:35;;;;;;;13.90;3.80;;;10.50;99.90;;;;;;5107618;28;20186;-75
2023/12/10 06:31:01;;;;;;;8.17;4.40;;;10.40;99.90;;;;;;5105748;28;20221;-76
2023/12/10 06:33:26;;;;;;;15.27;4.00;;;10.40;99.90;;;;;;5076456;28;20187;-76
2023/12/10 06:35:52;;;;;;;10.87;4.03;;;10.40;99.90;;;;;;5086887;28;20208;-75
2023/12/10 06:38:18;;;;;;;10.63;4.20;;;10.50;99.90;;;;;;5094217;28;20547;-77
2023/12/10 06:40:44;;;;;;;11.57;4.40;;;10.50;99.90;;;;;;5111552;28;20176;-73
2023/12/10 06:43:10;;;;;;;7.63;4.13;;;10.50;99.90;;;;;;5090998;28;20186;-64
2023/12/10 06:45:37;;;;;;;10.87;3.87;;;10.60;99.90;;;;;;5100080;28;20426;-74
2023/12/10 06:48:03;;;;;;;7.60;3.07;;;10.60;99.90;;;;;;5110373;28;20182;-74
2023/12/10 06:50:33;;;;;;;10.07;3.50;;;10.60;99.90;;;;;;5093533;28;20468;-75
2023/12/10 06:52:58;;;;;;;6.50;4.33;;;10.60;99.90;;;;;;5087393;28;20759;-68
2023/12/10 06:55:24;;;;;;;13.20;4.20;;;10.60;99.90;;;;;;5091627;28;20409;-69
2023/12/10 06:57:50;;;;;;;8.30;3.30;;;10.60;99.90;;;;;;5105959;28;20550;-68
2023/12/10 07:00:19;;;;;;;8.63;4.50;;;10.60;99.90;;;;;;5103919;28;20203;-73
2023/12/10 07:02:45;;;;;;;11.40;4.33;;;10.60;99.90;;;;;;5091138;28;20799;-80
2023/12/10 07:05:11;;;;;;;10.37;4.00;;;10.60;99.90;;;;;;5105693;28;20421;-65
2023/12/10 07:07:37;;;;;;;5.50;3.83;;;10.60;99.90;;;;;;5090612;28;20527;-77
2023/12/10 07:10:04;;;;;;;6.57;3.50;;;10.60;99.90;;;;;;5096159;28;20178;-73
2023/12/10 07:12:29;;;;;;;8.03;3.53;;;10.60;99.90;;;;;;5101062;28;20418;-73
2023/12/10 07:14:55;;;;;;;9.47;4.00;;;10.60;99.90;;;;;;5094053;28;20470;-72
2023/12/10 07:17:21;;;;;;;12.70;4.80;;;10.70;99.90;;;;;;5091662;28;20506;-72
2023/12/10 07:19:47;;;;;;;9.57;4.23;;;10.70;99.90;;;;;;5104311;28;20279;-74
2023/12/10 07:22:13;;;;;;;10.70;4.30;;;10.80;99.90;;;;;;5100440;28;20183;-61
2023/12/10 07:24:39;;;;;;;8.03;4.00;;;10.80;99.90;;;;;;5090849;28;20206;-66
2023/12/10 07:27:05;;;;;;;12.60;4.20;;;10.70;99.90;;;;;;5089485;28;20419;-69
2023/12/10 07:29:30;;;;;;;12.00;3.53;;;10.80;99.90;;;;;;5103510;28;20268;-69
2023/12/10 07:31:56;;;;;;;19.17;4.60;;;10.80;99.90;;;;;;5101715;28;20968;-69
2023/12/10 07:34:22;;;;;;;11.10;3.13;;;10.80;99.90;;;;;;5095446;28;20259;-69
2023/12/10 07:36:48;;;;;;;7.37;3.90;;;10.80;99.90;;;;;;5090609;28;20184;-68
2023/12/10 07:39:13;;;;;;;7.83;3.70;;;10.80;99.90;;;;;;5102117;28;20295;-61
2023/12/10 07:41:39;;;;;;;7.73;3.13;;;10.90;99.90;;;;;;5091698;28;20684;-69
2023/12/10 07:44:05;;;;;;;17.60;4.80;;;10.80;99.90;;;;;;5085479;28;20177;-70
2023/12/10 07:46:31;;;;;;;12.47;4.53;;;10.80;99.90;;;;;;5090752;28;20513;-69
2023/12/10 07:48:56;;;;;;;7.40;4.10;;;10.90;99.90;;;;;;5092662;28;20329;-69
2023/12/10 07:51:23;;;;;;;7.13;3.43;;;10.90;99.90;;;;;;5069607;28;20176;-66
2023/12/10 07:53:49;;;;;;;10.33;4.43;;;10.90;99.90;;;;;;5100699;28;20179;-68
2023/12/10 07:56:14;;;;;;;7.00;3.67;;;10.80;99.90;;;;;;5094797;28;20459;-66
2023/12/10 07:58:40;;;;;;;9.30;4.17;;;10.80;99.90;;;;;;5086524;28;20521;-60
2023/12/10 08:01:09;;;;;;;10.73;4.10;;;10.90;99.90;;;;;;5089512;28;20202;-60
2023/12/10 08:03:35;;;;;;;10.37;3.70;;;11.00;99.90;;;;;;5090690;28;20214;-59
2023/12/10 08:06:01;;;;;;;8.57;4.40;;;11.00;99.90;;;;;;5090498;28;20917;-63
2023/12/10 08:08:27;;;;;;;7.30;3.90;;;11.10;99.90;;;;;;5087578;28;20430;-59
2023/12/10 08:10:53;;;;;;;11.43;4.80;;;11.20;99.90;;;;;;5094917;28;20520;-62
2023/12/10 08:13:19;;;;;;;7.47;3.80;;;11.30;99.90;;;;;;5085502;28;20428;-59
2023/12/10 08:15:44;;;;;;;10.87;3.83;;;11.30;99.90;;;;;;5074621;28;20459;-59
2023/12/10 08:18:10;;;;;;;11.67;3.63;;;11.40;99.90;;;;;;5092303;28;20208;-60
2023/12/10 08:20:36;;;;;;;8.33;4.00;;;11.50;99.90;;;;;;5094460;28;20817;-60
2023/12/10 08:23:02;;;;;;;9.73;5.23;;;11.50;99.90;;;;;;5093959;28;20203;-60
2023/12/10 08:25:28;;;;;;;13.43;4.77;;;11.50;99.90;;;;;;5088542;28;20225;-60
2023/12/10 08:27:53;;;;;;;5.27;3.80;;;11.60;99.90;;;;;;5088336;28;20518;-59
2023/12/10 08:30:19;;;;;;;12.67;4.03;;;11.70;99.90;;;;;;5093959;28;20181;-59
2023/12/10 08:32:45;;;;;;;9.53;4.43;;;11.70;99.90;;;;;;5095709;28;20184;-59
2023/12/10 08:35:11;;;;;;;7.13;4.33;;;11.60;99.90;;;;;;5091455;28;20676;-59
2023/12/10 08:37:38;;;;;;;13.90;5.43;;;11.70;99.90;;;;;;5091332;28;20178;-60
2023/12/10 08:40:05;;;;;;;8.93;4.57;;;11.70;99.90;;;;;;5093842;28;20223;-59
2023/12/10 08:42:31;;;;;;;9.80;4.50;;;11.70;99.90;;;;;;5092094;28;20454;-59
2023/12/10 08:44:58;;;;;;;12.30;4.87;;;11.70;99.90;;;;;;5091372;28;20445;-60
2023/12/10 08:47:24;;;;;;;11.03;3.70;;;11.70;99.90;;;;;;5092035;28;20213;-64
2023/12/10 08:49:50;;;;;;;10.20;4.60;;;11.80;99.90;;;;;;5093637;28;20424;-61
2023/12/10 08:52:16;;;;;;;12.50;6.40;;;12.10;99.90;;;;;;5092923;28;20424;-61
2023/12/10 08:54:42;;;;;;;16.53;5.93;;;12.40;99.90;;;;;;5085597;28;20476;-62
2023/12/10 08:57:08;;;;;;;10.20;4.73;;;12.80;99.90;;;;;;5094184;28;20638;-61
2023/12/10 08:59:33;;;;;;;9.83;6.10;;;12.90;99.90;;;;;;5075899;28;20288;-61
2023/12/10 09:01:59;;;;;;;10.30;3.87;;;13.10;99.90;;;;;;5091364;28;20213;-63
2023/12/10 09:04:25;;;;;;;11.07;4.30;;;13.20;99.90;;;;;;5084872;28;20654;-64
2023/12/10 09:06:51;;;;;;;21.57;12.87;;;13.10;99.90;;;;;;5081781;28;20776;-64
2023/12/10 09:09:17;;;;;;;10.90;5.30;;;12.90;99.90;;;;;;5075590;28;20422;-62
2023/12/10 09:11:43;;;;;;;9.33;4.47;;;12.70;99.90;;;;;;5077535;28;20183;-63
2023/12/10 09:14:10;;;;;;;8.50;5.17;;;12.50;99.90;;;;;;5075503;28;20662;-62
2023/12/10 09:16:37;;;;;;;8.27;4.70;;;12.10;99.90;;;;;;5075301;28;20653;-63
2023/12/10 09:19:03;;;;;;;11.27;4.60;;;11.90;99.90;;;;;;5087210;28;20460;-62
2023/12/10 09:21:29;;;;;;;9.47;4.83;;;11.70;99.90;;;;;;5078453;28;20427;-63
2023/12/10 09:23:55;;;;;;;10.80;5.13;;;11.60;99.90;;;;;;5104417;28;20483;-56
2023/12/10 09:26:21;;;;;;;12.90;5.40;;;11.50;99.90;;;;;;5094717;28;20199;-63
2023/12/10 09:28:47;;;;;;;13.50;4.33;;;11.30;99.90;;;;;;5094318;28;20426;-58
2023/12/10 09:31:13;;;;;;;4.87;3.10;;;11.30;99.90;;;;;;5092998;28;20195;-56
2023/12/10 09:33:38;;;;;;;9.67;4.30;;;11.30;99.90;;;;;;5080071;28;20416;-56
2023/12/10 09:36:04;;;;;;;5.83;3.73;;;11.30;99.90;;;;;;5074427;28;20622;-58
2023/12/10 09:38:30;;;;;;;11.50;4.20;;;11.20;99.90;;;;;;5090710;28;20263;-59
2023/12/10 09:40:56;;;;;;;5.10;3.43;;;11.20;99.90;;;;;;5102889;28;20930;-56
2023/12/10 09:43:23;;;;;;;9.67;4.10;;;11.20;99.90;;;;;;5111617;28;20447;-63
2023/12/10 09:45:49;;;;;;;10.70;3.23;;;11.20;99.90;;;;;;5106746;28;20525;-56
2023/12/10 09:48:16;;;;;;;6.87;2.90;;;11.20;99.90;;;;;;5092945;28;20430;-57
2023/12/10 09:50:42;;;;;;;6.70;4.37;;;11.20;99.90;;;;;;5093708;28;20271;-56
2023/12/10 09:53:08;;;;;;;11.00;3.90;;;11.20;99.90;;;;;;5113752;28;20874;-57
2023/12/10 09:55:35;;;;;;;9.47;3.27;;;11.20;99.90;;;;;;5107636;28;20222;-56
2023/12/10 09:58:02;;;;;;;15.40;3.90;;;11.20;99.90;;;;;;5111518;28;20555;-57
2023/12/10 10:00:28;;;;;;;9.70;3.70;;;11.10;99.90;;;;;;5113023;28;20422;-56
2023/12/10 10:03:02;;;;;;;16.23;4.30;;;11.10;99.90;;;;;;5104224;28;20790;-56
2023/12/10 10:05:28;;;;;;;12.07;4.00;;;11.10;99.90;;;;;;5091036;28;20176;-60
2023/12/10 10:07:54;;;;;;;6.30;3.50;;;11.10;99.90;;;;;;5091484;28;20910;-58
2023/12/10 10:10:22;;;;;;;305.97;132.87;;;11.10;99.90;;;;;;5091138;28;20468;-62
2023/12/10 10:12:48;;;;;;;15.90;9.37;;;11.10;99.90;;;;;;5088623;28;20940;-56
2023/12/10 10:15:14;;;;;;;10.30;4.37;;;11.10;99.90;;;;;;5113131;28;20467;-56
2023/12/10 10:17:42;;;;;;;9.77;4.40;;;11.10;99.90;;;;;;5084425;28;20425;-58
2023/12/10 10:20:09;;;;;;;6.40;3.70;;;11.10;99.90;;;;;;5091107;28;20415;-56
2023/12/10 10:22:35;;;;;;;14.00;4.00;;;11.10;99.90;;;;;;5088715;28;20432;-56
2023/12/10 10:25:03;;;;;;;10.63;4.00;;;11.10;99.90;;;;;;5091563;28;20443;-56
2023/12/10 10:27:31;;;;;;;8.33;4.10;;;11.10;99.90;;;;;;5089975;28;20441;-60
2023/12/10 10:29:57;;;;;;;9.23;3.47;;;11.10;99.90;;;;;;5088440;28;20434;-57
2023/12/10 10:32:23;;;;;;;9.20;4.03;;;11.10;99.90;;;;;;5087155;28;20446;-63
2023/12/10 10:34:50;;;;;;;8.60;4.23;;;11.10;99.90;;;;;;5088905;28;20452;-57
2023/12/10 10:37:17;;;;;;;13.00;4.67;;;11.10;99.90;;;;;;5092565;28;20179;-56
2023/12/10 10:39:44;;;;;;;7.27;4.13;;;11.10;99.90;;;;;;5088410;28;20575;-56
2023/12/10 10:42:10;;;;;;;10.17;4.10;;;11.10;99.90;;;;;;5092415;28;20841;-56
2023/12/10 10:44:37;;;;;;;10.90;4.07;;;11.10;99.90;;;;;;5090516;28;20415;-55
2023/12/10 10:47:08;;;;;;;10.23;3.60;;;11.20;99.90;;;;;;5090326;28;20416;-56
2023/12/10 10:49:37;;;;;;;11.50;3.70;;;11.20;99.90;;;;;;5091074;28;20938;-61
2023/12/10 10:52:08;;;;;;;6.30;3.77;;;11.30;99.90;;;;;;5088463;28;20408;-60
2023/12/10 10:54:35;;;;;;;11.60;4.70;;;11.30;99.90;;;;;;5091304;28;20427;-61
2023/12/10 10:57:02;;;;;;;6.87;4.00;;;11.40;99.90;;;;;;5093119;28;20769;-65
2023/12/10 10:59:32;;;;;;;9.17;4.70;;;11.40;99.90;;;;;;5089062;28;20467;-59
2023/12/10 11:02:06;;;;;;;7.97;3.60;;;11.60;99.90;;;;;;5090704;28;20446;-62
2023/12/10 11:04:34;;;;;;;8.97;4.10;;;11.40;99.90;;;;;;5086745;28;20408;-61
2023/12/10 11:07:02;;;;;;;11.17;5.07;;;11.30;99.90;;;;;;5089849;28;20415;-61
2023/12/10 11:09:30;;;;;;;7.23;3.90;;;11.40;99.90;;;;;;5089709;28;20456;-61
2023/12/10 11:11:59;;;;;;;9.20;3.70;;;11.50;99.90;;;;;;5091420;28;20418;-64
2023/12/10 11:14:28;;;;;;;7.40;3.70;;;11.60;99.90;;;;;;5089413;28;20830;-69
2023/12/10 11:16:59;;;;;;;52.73;28.93;;;11.80;99.90;;;;;;5090565;28;20450;-61
2023/12/10 11:19:25;;;;;;;15.10;9.80;;;11.90;99.90;;;;;;5089700;28;20462;-61
2023/12/10 11:21:51;;;;;;;13.23;4.20;;;12.00;99.90;;;;;;5088787;28;20422;-61
2023/12/10 11:24:17;;;;;;;8.90;4.20;;;12.10;99.90;;;;;;5091852;28;20434;-61
2023/12/10 11:26:43;;;;;;;10.77;4.43;;;12.20;99.90;;;;;;5088772;28;20178;-62
2023/12/10 11:29:09;;;;;;;12.60;5.37;;;12.30;99.90;;;;;;5090759;28;20417;-61
2023/12/10 11:31:35;;;;;;;7.97;3.77;;;12.30;99.90;;;;;;5082235;28;20429;-62
2023/12/10 11:34:01;;;;;;;14.17;3.60;;;12.50;99.90;;;;;;5090064;28;20861;-61
2023/12/10 11:36:27;;;;;;;7.90;3.27;;;12.70;99.90;;;;;;5092587;28;20437;-61
2023/12/10 11:38:53;;;;;;;7.07;4.00;;;12.80;99.90;;;;;;5094089;28;20477;-61
2023/12/10 11:41:19;;;;;;;16.03;4.37;;;12.80;99.90;;;;;;5093447;28;20275;-62
2023/12/10 11:43:45;;;;;;;8.67;3.60;;;12.80;99.90;;;;;;5092709;28;20496;-61
2023/12/10 11:46:32;;;;;;;8.33;4.10;;;12.90;99.90;;;;;;5088629;28;20805;-62
2023/12/10 11:48:58;;;;;;;8.97;3.20;;;13.00;99.90;;;;;;5091678;28;20457;-62
2023/12/10 11:51:23;;;;;;;10.90;3.97;;;13.00;99.90;;;;;;5088363;28;20967;-68
2023/12/10 11:53:50;;;;;;;9.40;3.43;;;13.10;99.90;;;;;;5089828;28;20558;-61
2023/12/10 11:56:16;;;;;;;5.90;3.00;;;13.20;99.90;;;;;;5095284;28;20184;-61
2023/12/10 11:58:45;;;;;;;15.23;4.80;;;13.30;99.90;;;;;;5092946;28;20967;-61
2023/12/10 12:01:10;;;;;;;10.70;4.63;;;13.20;99.90;;;;;;5095074;28;20183;-61
2023/12/10 12:03:37;;;;;;;5.90;3.90;;;13.20;99.90;;;;;;5094821;28;20408;-59
2023/12/10 12:06:04;;;;;;;7.20;3.43;;;13.20;99.90;;;;;;5095178;28;20545;-61
2023/12/10 12:08:30;;;;;;;10.03;4.40;;;13.30;99.90;;;;;;5096930;28;20437;-61
2023/12/10 12:10:57;;;;;;;8.30;4.33;;;13.30;99.90;;;;;;5093100;28;20422;-61
2023/12/10 12:13:24;;;;;;;16.17;4.13;;;13.50;99.90;;;;;;5092076;28;20197;-65
2023/12/10 12:15:51;;;;;;;9.07;3.87;;;13.60;99.90;;;;;;5092212;28;20457;-60
2023/12/10 12:18:17;;;;;;;5.90;3.90;;;13.70;99.60;;;;;;5093419;28;20469;-60
2023/12/10 12:20:44;;;;;;;11.70;4.00;;;13.70;99.10;;;;;;5095938;28;20462;-61
2023/12/10 12:23:10;;;;;;;5.47;3.50;;;13.70;98.70;;;;;;5091495;28;20518;-60
2023/12/10 12:25:38;;;;;;;8.77;3.47;;;13.60;98.60;;;;;;5093505;28;20453;-65
2023/12/10 12:28:07;;;;;;;6.90;3.93;;;13.60;99.20;;;;;;5095655;28;20430;-65
2023/12/10 12:30:34;;;;;;;6.13;3.33;;;13.60;99.20;;;;;;5089970;28;20426;-65
2023/12/10 12:33:00;;;;;;;10.37;3.70;;;13.50;99.80;;;;;;5092269;28;20509;-65
2023/12/10 12:35:27;;;;;;;9.00;4.20;;;13.50;99.90;;;;;;5089520;28;20482;-65